createdAt,value
2022-07-30T00:02:08.502Z,22.13
2022-07-30T00:04:35.932Z,22.12
2022-07-30T00:07:04.632Z,22.17
2022-07-30T00:09:34.494Z,22.14
2022-07-30T00:12:05.443Z,22.06
2022-07-30T00:14:32.899Z,22.01
2022-07-30T00:17:00.115Z,21.94
2022-07-30T00:19:28.208Z,21.89
2022-07-30T00:21:56.089Z,21.87
2022-07-30T00:24:23.737Z,21.87
2022-07-30T00:26:51.179Z,21.86
2022-07-30T00:29:18.506Z,21.79
2022-07-30T00:31:45.628Z,21.77
2022-07-30T00:34:13.256Z,21.78
2022-07-30T00:36:40.976Z,21.82
2022-07-30T00:39:08.530Z,21.77
2022-07-30T00:41:38.042Z,21.78
2022-07-30T00:44:05.470Z,21.71
2022-07-30T00:46:32.670Z,21.62
2022-07-30T00:49:00.122Z,21.62
2022-07-30T00:51:27.392Z,21.51
2022-07-30T00:53:54.945Z,21.52
2022-07-30T00:56:22.642Z,21.44
2022-07-30T00:58:49.942Z,21.41
2022-07-30T01:01:17.281Z,21.45
2022-07-30T01:03:45.035Z,21.31
2022-07-30T01:06:14.202Z,21.39
2022-07-30T01:09:03.640Z,21.31
2022-07-30T01:11:39.845Z,21.34
2022-07-30T01:14:08.667Z,21.26
2022-07-30T01:16:38.155Z,21.25
2022-07-30T01:19:31.184Z,21.24
2022-07-30T01:22:11.189Z,21.20
2022-07-30T01:24:47.148Z,21.18
2022-07-30T01:27:19.690Z,21.22
2022-07-30T01:29:49.406Z,21.20
2022-07-30T01:32:19.740Z,21.11
2022-07-30T01:34:47.749Z,21.11
2022-07-30T01:37:17.615Z,21.07
2022-07-30T01:39:49.888Z,20.97
2022-07-30T01:42:19.409Z,21.13
2022-07-30T01:44:50.327Z,21.20
2022-07-30T01:47:20.270Z,21.22
2022-07-30T01:49:49.905Z,21.09
2022-07-30T01:52:18.712Z,20.93
2022-07-30T01:54:48.729Z,20.86
2022-07-30T01:57:19.390Z,20.86
2022-07-30T01:59:50.876Z,20.76
2022-07-30T02:02:19.673Z,20.75
2022-07-30T02:04:47.930Z,20.69
2022-07-30T02:07:15.165Z,20.80
2022-07-30T02:09:52.048Z,20.79
2022-07-30T02:12:30.280Z,20.72
2022-07-30T02:15:35.127Z,20.66
2022-07-30T02:18:06.929Z,20.66
2022-07-30T02:20:35.982Z,20.55
2022-07-30T02:23:10.598Z,20.63
2022-07-30T02:25:42.357Z,20.58
2022-07-30T02:28:13.184Z,20.56
2022-07-30T02:30:47.669Z,20.46
2022-07-30T02:33:17.415Z,20.59
2022-07-30T02:35:45.591Z,20.59
2022-07-30T02:38:16.482Z,20.57
2022-07-30T02:40:45.250Z,20.58
2022-07-30T02:43:16.927Z,20.43
2022-07-30T02:45:48.495Z,20.47
2022-07-30T02:48:34.545Z,20.40
2022-07-30T02:51:04.256Z,20.37
2022-07-30T02:53:33.310Z,20.40
2022-07-30T02:56:02.712Z,20.37
2022-07-30T02:58:31.059Z,20.42
2022-07-30T03:01:00.349Z,20.39
2022-07-30T03:03:32.068Z,20.28
2022-07-30T03:06:00.819Z,20.40
2022-07-30T03:08:29.219Z,20.35
2022-07-30T03:10:57.658Z,20.41
2022-07-30T03:13:25.759Z,20.37
2022-07-30T03:15:54.144Z,20.35
2022-07-30T03:18:23.591Z,20.38
2022-07-30T03:20:55.310Z,20.37
2022-07-30T03:23:23.903Z,20.32
2022-07-30T03:25:58.214Z,20.28
2022-07-30T03:28:26.763Z,20.33
2022-07-30T03:30:54.772Z,20.47
2022-07-30T03:33:23.665Z,20.40
2022-07-30T03:36:08.629Z,20.42
2022-07-30T03:38:38.937Z,20.37
2022-07-30T03:41:08.033Z,20.34
2022-07-30T03:43:35.962Z,20.38
2022-07-30T03:46:05.938Z,20.39
2022-07-30T03:48:36.282Z,20.41
2022-07-30T03:51:05.194Z,20.54
2022-07-30T03:53:32.927Z,20.48
2022-07-30T03:56:19.504Z,20.64
2022-07-30T03:59:06.913Z,20.71
2022-07-30T04:01:37.402Z,20.78
2022-07-30T04:04:21.462Z,20.73
2022-07-30T04:06:49.950Z,20.74
2022-07-30T04:09:19.495Z,20.82
2022-07-30T04:11:48.275Z,20.93
2022-07-30T04:14:17.814Z,21.06
2022-07-30T04:17:04.070Z,21.14
2022-07-30T04:19:48.346Z,21.16
2022-07-30T04:22:21.415Z,21.25
2022-07-30T04:24:49.791Z,21.04
2022-07-30T04:27:18.204Z,21.44
2022-07-30T04:29:45.563Z,21.50
2022-07-30T04:32:13.347Z,21.54
2022-07-30T04:34:59.795Z,21.58
2022-07-30T04:37:53.066Z,21.63
2022-07-30T04:40:20.906Z,21.73
2022-07-30T04:42:48.268Z,21.87
2022-07-30T04:45:15.741Z,22.03
2022-07-30T04:47:55.343Z,22.17
2022-07-30T04:50:42.378Z,21.88
2022-07-30T04:53:12.661Z,22.38
2022-07-30T04:55:48.927Z,22.43
2022-07-30T04:58:20.614Z,22.56
2022-07-30T05:00:52.220Z,22.54
2022-07-30T05:03:26.098Z,22.68
2022-07-30T05:05:57.632Z,22.67
2022-07-30T05:08:28.276Z,22.85
2022-07-30T05:10:58.624Z,22.99
2022-07-30T05:13:34.581Z,23.10
2022-07-30T05:16:07.518Z,23.15
2022-07-30T05:18:36.695Z,23.29
2022-07-30T05:21:04.882Z,23.31
2022-07-30T05:23:37.700Z,23.46
2022-07-30T05:26:13.851Z,23.59
2022-07-30T05:28:48.474Z,23.69
2022-07-30T05:31:24.605Z,23.79
2022-07-30T05:34:02.939Z,23.85
2022-07-30T05:36:38.410Z,24.01
2022-07-30T05:39:06.065Z,24.18
2022-07-30T05:41:55.121Z,24.33
2022-07-30T05:44:26.950Z,24.48
2022-07-30T05:46:55.085Z,24.64
2022-07-30T05:49:24.046Z,24.69
2022-07-30T05:51:53.055Z,24.78
2022-07-30T05:54:20.522Z,24.87
2022-07-30T05:57:10.886Z,25.00
2022-07-30T05:59:39.262Z,25.17
2022-07-30T06:02:10.730Z,25.36
2022-07-30T06:04:56.404Z,25.46
2022-07-30T06:07:24.693Z,25.60
2022-07-30T06:09:54.135Z,25.69
2022-07-30T06:12:21.519Z,25.76
2022-07-30T06:14:49.306Z,25.92
2022-07-30T06:17:23.703Z,25.92
2022-07-30T06:20:12.970Z,26.07
2022-07-30T06:23:03.191Z,25.96
2022-07-30T06:25:42.779Z,25.95
2022-07-30T06:28:27.738Z,26.11
2022-07-30T06:30:58.080Z,26.37
2022-07-30T06:33:28.264Z,26.45
2022-07-30T06:35:55.674Z,26.56
2022-07-30T06:38:26.846Z,26.67
2022-07-30T06:41:04.418Z,26.70
2022-07-30T06:43:47.716Z,26.82
2022-07-30T06:46:33.524Z,26.94
2022-07-30T06:49:00.965Z,27.12
2022-07-30T06:51:28.253Z,27.24
2022-07-30T06:53:55.817Z,27.40
2022-07-30T06:56:41.612Z,27.45
2022-07-30T06:59:08.933Z,27.57
2022-07-30T07:01:54.685Z,27.63
2022-07-30T07:04:23.671Z,27.76
2022-07-30T07:06:50.921Z,27.81
2022-07-30T07:09:27.899Z,27.94
2022-07-30T07:12:24.483Z,27.95
2022-07-30T07:14:51.712Z,28.11
2022-07-30T07:17:20.160Z,28.20
2022-07-30T07:20:06.015Z,28.32
2022-07-30T07:22:40.702Z,28.35
2022-07-30T07:25:09.708Z,28.51
2022-07-30T07:27:38.448Z,28.63
2022-07-30T07:30:07.274Z,28.73
2022-07-30T07:32:37.455Z,28.84
2022-07-30T07:35:06.618Z,28.95
2022-07-30T07:37:36.359Z,29.07
2022-07-30T07:40:06.135Z,29.07
2022-07-30T07:42:38.026Z,29.09
2022-07-30T07:45:07.293Z,29.06
2022-07-30T07:47:49.223Z,29.11
2022-07-30T07:50:36.114Z,29.27
2022-07-30T07:53:04.146Z,29.35
2022-07-30T07:55:32.272Z,29.51
2022-07-30T07:58:01.014Z,29.52
2022-07-30T08:00:29.587Z,29.68
2022-07-30T08:02:58.676Z,29.73
2022-07-30T08:06:01.765Z,29.81
2022-07-30T08:08:25.063Z,29.94
2022-07-30T08:11:12.669Z,29.96
2022-07-30T08:14:15.643Z,29.99
2022-07-30T08:17:01.616Z,30.06
2022-07-30T08:19:47.619Z,30.07
2022-07-30T08:22:21.537Z,30.07
2022-07-30T08:24:48.749Z,30.23
2022-07-30T08:27:16.039Z,30.32
2022-07-30T08:29:43.449Z,30.39
2022-07-30T08:32:10.600Z,30.43
2022-07-30T08:34:40.515Z,30.46
2022-07-30T08:37:07.849Z,30.50
2022-07-30T08:39:36.391Z,30.60
2022-07-30T08:42:05.072Z,30.62
2022-07-30T08:44:35.653Z,30.56
2022-07-30T08:47:07.257Z,30.64
2022-07-30T08:50:07.003Z,30.63
2022-07-30T08:52:37.914Z,30.83
2022-07-30T08:55:11.820Z,30.91
2022-07-30T08:57:40.851Z,31.05
2022-07-30T09:00:09.365Z,31.16
2022-07-30T09:02:36.646Z,31.19
2022-07-30T09:05:07.015Z,31.22
2022-07-30T09:07:36.168Z,31.24
2022-07-30T09:10:07.318Z,31.25
2022-07-30T09:12:43.068Z,31.37
2022-07-30T09:15:15.515Z,31.43
2022-07-30T09:17:56.645Z,31.45
2022-07-30T09:20:31.468Z,31.62
2022-07-30T09:23:02.253Z,31.70
2022-07-30T09:25:50.258Z,31.76
2022-07-30T09:28:36.351Z,31.71
2022-07-30T09:31:16.917Z,31.66
2022-07-30T09:34:02.743Z,31.72
2022-07-30T09:36:48.927Z,31.89
2022-07-30T09:39:35.877Z,31.95
2022-07-30T09:42:27.909Z,31.66
2022-07-30T09:45:09.834Z,31.87
2022-07-30T09:47:42.829Z,31.96
2022-07-30T09:50:17.919Z,32.05
2022-07-30T09:53:09.626Z,31.78
2022-07-30T09:55:42.306Z,32.04
2022-07-30T09:58:26.384Z,32.14
2022-07-30T10:00:59.668Z,32.06
2022-07-30T10:03:44.266Z,32.10
2022-07-30T10:06:38.169Z,32.10
2022-07-30T10:09:37.433Z,32.19
2022-07-30T10:12:11.274Z,32.19
2022-07-30T10:14:47.292Z,32.27
2022-07-30T10:17:18.335Z,32.26
2022-07-30T10:20:14.929Z,32.42
2022-07-30T10:23:07.780Z,32.41
2022-07-30T10:25:49.283Z,32.32
2022-07-30T10:28:41.021Z,32.43
2022-07-30T10:31:47.952Z,32.53
2022-07-30T10:33:57.186Z,32.56
2022-07-30T10:36:26.767Z,32.63
2022-07-30T10:38:55.766Z,32.59
2022-07-30T10:41:44.264Z,32.64
2022-07-30T10:44:31.318Z,32.70
2022-07-30T10:47:09.207Z,32.85
2022-07-30T10:49:41.037Z,32.92
2022-07-30T10:52:12.172Z,32.95
2022-07-30T10:54:42.575Z,32.97
2022-07-30T10:57:26.608Z,33.05
2022-07-30T11:00:00.695Z,33.17
2022-07-30T11:02:35.503Z,33.09
2022-07-30T11:05:38.219Z,33.24
2022-07-30T11:08:32.614Z,33.30
2022-07-30T11:12:01.541Z,33.34
2022-07-30T11:14:20.538Z,33.34
2022-07-30T11:16:51.439Z,33.28
2022-07-30T11:19:56.987Z,33.36
2022-07-30T11:22:28.807Z,33.36
2022-07-30T11:24:57.987Z,33.41
2022-07-30T11:27:45.777Z,33.37
2022-07-30T11:30:17.008Z,33.38
2022-07-30T11:32:48.570Z,33.38
2022-07-30T11:35:19.201Z,33.33
2022-07-30T11:38:03.370Z,33.39
2022-07-30T11:40:40.424Z,33.37
2022-07-30T11:43:36.975Z,33.47
2022-07-30T11:46:36.401Z,33.63
2022-07-30T11:49:09.095Z,33.71
2022-07-30T11:51:44.477Z,33.72
2022-07-30T11:54:12.931Z,33.69
2022-07-30T11:56:53.503Z,33.76
2022-07-30T11:59:21.295Z,33.54
2022-07-30T12:02:01.987Z,33.69
2022-07-30T12:04:30.114Z,33.74
2022-07-30T12:06:57.986Z,33.88
2022-07-30T12:09:32.230Z,33.96
2022-07-30T12:12:02.388Z,34.04
2022-07-30T12:14:39.491Z,33.89
2022-07-30T12:17:14.993Z,33.92
2022-07-30T12:19:49.642Z,33.88
2022-07-30T12:22:16.939Z,33.81
2022-07-30T12:24:44.329Z,34.02
2022-07-30T12:27:11.679Z,33.98
2022-07-30T12:29:39.158Z,33.97
2022-07-30T12:32:06.904Z,34.02
2022-07-30T12:34:34.532Z,34.04
2022-07-30T12:37:10.487Z,34.02
2022-07-30T12:39:38.544Z,34.01
2022-07-30T12:42:17.587Z,34.01
2022-07-30T12:44:45.146Z,34.03
2022-07-30T12:47:20.527Z,34.04
2022-07-30T12:49:50.281Z,34.18
2022-07-30T12:52:33.770Z,34.26
2022-07-30T12:55:06.713Z,34.25
2022-07-30T12:57:56.721Z,34.31
2022-07-30T13:00:27.031Z,34.29
2022-07-30T13:02:55.022Z,34.38
2022-07-30T13:05:49.042Z,34.41
2022-07-30T13:08:16.875Z,34.50
2022-07-30T13:11:00.935Z,34.49
2022-07-30T13:13:29.555Z,34.50
2022-07-30T13:16:02.524Z,34.45
2022-07-30T13:18:43.412Z,34.51
2022-07-30T13:21:11.598Z,34.24
2022-07-30T13:23:40.946Z,34.46
2022-07-30T13:26:09.969Z,34.34
2022-07-30T13:28:37.423Z,34.31
2022-07-30T13:31:05.249Z,34.39
2022-07-30T13:33:32.560Z,34.45
2022-07-30T13:36:00.406Z,34.51
2022-07-30T13:38:28.506Z,34.53
2022-07-30T13:40:59.162Z,34.71
2022-07-30T13:43:29.860Z,34.63
2022-07-30T13:46:03.143Z,34.57
2022-07-30T13:48:31.048Z,34.52
2022-07-30T13:51:00.277Z,34.53
2022-07-30T13:53:28.609Z,34.67
2022-07-30T13:55:56.627Z,34.81
2022-07-30T13:58:24.049Z,34.92
2022-07-30T14:00:51.684Z,34.99
2022-07-30T14:03:19.031Z,35.01
2022-07-30T14:05:48.794Z,35.00
2022-07-30T14:08:16.167Z,34.93
2022-07-30T14:10:43.867Z,35.10
2022-07-30T14:13:16.005Z,35.11
2022-07-30T14:15:48.680Z,34.92
2022-07-30T14:18:16.061Z,34.97
2022-07-30T14:20:46.860Z,35.10
2022-07-30T14:23:16.936Z,35.17
2022-07-30T14:25:47.322Z,35.27
2022-07-30T14:28:14.813Z,35.36
2022-07-30T14:30:42.768Z,35.31
2022-07-30T14:33:11.578Z,35.13
2022-07-30T14:35:39.072Z,35.05
2022-07-30T14:38:06.400Z,35.03
2022-07-30T14:40:33.460Z,35.19
2022-07-30T14:43:00.878Z,35.11
2022-07-30T14:45:28.661Z,34.99
2022-07-30T14:47:56.669Z,34.91
2022-07-30T14:50:24.384Z,35.09
2022-07-30T14:52:52.112Z,35.11
2022-07-30T14:55:19.571Z,34.89
2022-07-30T14:57:47.426Z,34.99
2022-07-30T15:00:15.022Z,35.07
2022-07-30T15:02:42.474Z,34.99
2022-07-30T15:05:10.010Z,34.97
2022-07-30T15:07:37.701Z,34.91
2022-07-30T15:10:07.633Z,34.93
2022-07-30T15:12:35.581Z,35.00
2022-07-30T15:15:06.197Z,35.05
2022-07-30T15:17:35.780Z,34.91
2022-07-30T15:20:09.876Z,34.92
2022-07-30T15:22:38.526Z,34.88
2022-07-30T15:25:06.728Z,34.72
2022-07-30T15:27:34.549Z,34.65
2022-07-30T15:30:02.039Z,34.65
2022-07-30T15:32:31.099Z,34.48
2022-07-30T15:34:58.947Z,34.50
2022-07-30T15:37:26.832Z,34.61
2022-07-30T15:39:54.086Z,34.47
2022-07-30T15:42:21.419Z,34.37
2022-07-30T15:44:49.255Z,34.41
2022-07-30T15:47:16.704Z,34.53
2022-07-30T15:49:44.711Z,34.63
2022-07-30T15:52:12.197Z,34.81
2022-07-30T15:54:39.703Z,35.04
2022-07-30T15:57:07.075Z,35.31
2022-07-30T15:59:34.409Z,35.45
2022-07-30T16:02:01.963Z,35.63
2022-07-30T16:04:31.210Z,35.64
2022-07-30T16:07:04.344Z,35.86
2022-07-30T16:09:31.867Z,36.01
2022-07-30T16:11:59.485Z,35.77
2022-07-30T16:14:27.388Z,35.74
2022-07-30T16:16:55.297Z,35.97
2022-07-30T16:19:22.457Z,35.99
2022-07-30T16:21:49.780Z,35.92
2022-07-30T16:24:17.619Z,35.62
2022-07-30T16:26:44.813Z,35.31
2022-07-30T16:29:14.057Z,34.96
2022-07-30T16:31:42.173Z,34.72
2022-07-30T16:34:09.474Z,34.40
2022-07-30T16:36:37.023Z,34.13
2022-07-30T16:39:05.409Z,34.07
2022-07-30T16:41:32.713Z,33.94
2022-07-30T16:44:00.021Z,33.72
2022-07-30T16:46:27.600Z,33.44
2022-07-30T16:48:55.064Z,33.29
2022-07-30T16:51:22.375Z,33.03
2022-07-30T16:53:52.208Z,32.77
2022-07-30T16:56:20.437Z,32.68
2022-07-30T16:58:57.635Z,32.53
2022-07-30T17:01:24.958Z,32.44
2022-07-30T17:04:02.114Z,32.29
2022-07-30T17:06:29.627Z,32.08
2022-07-30T17:08:56.868Z,32.00
2022-07-30T17:11:46.394Z,31.79
2022-07-30T17:14:12.348Z,31.64
2022-07-30T17:16:40.405Z,31.60
2022-07-30T17:19:09.528Z,31.47
2022-07-30T17:21:38.953Z,31.30
2022-07-30T17:24:11.872Z,31.26
2022-07-30T17:26:42.931Z,31.17
2022-07-30T17:29:14.059Z,31.09
2022-07-30T17:31:44.273Z,31.02
2022-07-30T17:34:14.241Z,30.89
2022-07-30T17:36:51.842Z,30.80
2022-07-30T17:40:26.657Z,30.53
2022-07-30T17:42:12.380Z,30.60
2022-07-30T17:44:41.963Z,30.56
2022-07-30T17:47:15.166Z,30.49
2022-07-30T17:49:44.361Z,30.46
2022-07-30T17:52:11.795Z,30.32
2022-07-30T17:54:39.090Z,30.25
2022-07-30T17:57:06.441Z,30.26
2022-07-30T17:59:33.631Z,30.18
2022-07-30T18:02:01.240Z,30.11
2022-07-30T18:04:28.743Z,30.05
2022-07-30T18:06:55.827Z,30.03
2022-07-30T18:09:24.257Z,30.03
2022-07-30T18:11:51.983Z,29.95
2022-07-30T18:14:19.370Z,29.92
2022-07-30T18:16:46.672Z,29.80
2022-07-30T18:19:27.038Z,29.81
2022-07-30T18:21:54.780Z,29.78
2022-07-30T18:24:24.565Z,29.76
2022-07-30T18:26:52.634Z,29.64
2022-07-30T18:29:21.116Z,29.63
2022-07-30T18:31:48.670Z,29.55
2022-07-30T18:34:15.949Z,29.58
2022-07-30T18:36:43.187Z,29.58
2022-07-30T18:39:10.422Z,29.42
2022-07-30T18:41:37.510Z,29.50
2022-07-30T18:44:05.016Z,29.37
2022-07-30T18:46:32.179Z,29.36
2022-07-30T18:49:15.073Z,29.30
2022-07-30T18:51:47.850Z,29.23
2022-07-30T18:54:16.060Z,29.22
2022-07-30T18:56:43.269Z,29.16
2022-07-30T18:59:10.749Z,29.14
2022-07-30T19:01:39.361Z,29.08
2022-07-30T19:04:06.919Z,29.11
2022-07-30T19:06:38.046Z,29.01
2022-07-30T19:09:05.632Z,28.92
2022-07-30T19:11:42.980Z,28.91
2022-07-30T19:14:11.858Z,28.89
2022-07-30T19:16:39.288Z,28.85
2022-07-30T19:19:06.464Z,28.83
2022-07-30T19:21:34.343Z,28.81
2022-07-30T19:24:01.937Z,28.75
2022-07-30T19:26:29.032Z,28.68
2022-07-30T19:28:56.312Z,28.64
2022-07-30T19:31:23.619Z,28.58
2022-07-30T19:33:50.945Z,28.45
2022-07-30T19:36:21.234Z,28.34
2022-07-30T19:38:50.105Z,28.27
2022-07-30T19:41:17.250Z,28.18
2022-07-30T19:43:57.776Z,28.19
2022-07-30T19:46:26.140Z,28.21
2022-07-30T19:48:53.362Z,28.19
2022-07-30T19:51:25.392Z,28.20
2022-07-30T19:54:08.331Z,28.05
2022-07-30T19:56:37.865Z,28.11
2022-07-30T19:59:14.573Z,27.94
2022-07-30T20:01:43.558Z,27.88
2022-07-30T20:04:11.356Z,27.85
2022-07-30T20:06:46.172Z,27.73
2022-07-30T20:09:15.087Z,27.62
2022-07-30T20:11:46.256Z,27.63
2022-07-30T20:17:02.122Z,27.55
2022-07-30T20:19:36.003Z,27.61
2022-07-30T20:22:04.436Z,27.69
2022-07-30T20:24:31.653Z,27.60
2022-07-30T20:27:01.796Z,27.65
2022-07-30T20:29:49.117Z,27.58
2022-07-30T20:32:17.561Z,27.65
2022-07-30T20:34:44.750Z,27.61
2022-07-30T20:37:16.581Z,27.59
2022-07-30T20:39:50.487Z,27.57
2022-07-30T20:42:18.579Z,27.40
2022-07-30T20:44:50.653Z,27.46
2022-07-30T20:47:34.298Z,27.40
2022-07-30T20:50:10.745Z,27.33
2022-07-30T20:52:46.531Z,27.05
2022-07-30T20:55:16.984Z,26.82
2022-07-30T20:57:59.290Z,26.66
2022-07-30T21:00:36.734Z,26.43
2022-07-30T21:03:05.665Z,26.34
2022-07-30T21:05:32.948Z,26.26
2022-07-30T21:08:00.711Z,26.28
2022-07-30T21:10:28.312Z,26.43
2022-07-30T21:12:58.502Z,26.39
2022-07-30T21:15:36.193Z,26.37
2022-07-30T21:18:12.836Z,26.44
2022-07-30T21:20:40.081Z,26.51
2022-07-30T21:23:11.525Z,26.60
2022-07-30T21:26:01.509Z,26.61
2022-07-30T21:28:29.739Z,26.64
2022-07-30T21:31:02.611Z,26.68
2022-07-30T21:33:31.430Z,26.77
2022-07-30T21:35:59.448Z,26.78
2022-07-30T21:38:27.747Z,26.90
2022-07-30T21:40:56.041Z,26.95
2022-07-30T21:43:30.124Z,27.00
2022-07-30T21:45:59.031Z,26.93
2022-07-30T21:48:26.850Z,26.87
2022-07-30T21:50:54.872Z,26.77
2022-07-30T21:53:29.892Z,26.72
2022-07-30T21:56:10.901Z,26.38
2022-07-30T21:58:39.364Z,26.37
2022-07-30T22:01:16.763Z,26.16
2022-07-30T22:04:01.711Z,26.11
2022-07-30T22:06:41.701Z,26.07
2022-07-30T22:09:19.459Z,26.05
2022-07-30T22:11:54.725Z,25.85
2022-07-30T22:14:23.263Z,25.74
2022-07-30T22:16:53.075Z,25.74
2022-07-30T22:19:22.019Z,25.59
2022-07-30T22:21:50.975Z,25.51
2022-07-30T22:24:29.618Z,25.42
2022-07-30T22:27:01.030Z,25.55
2022-07-30T22:29:34.211Z,25.54
2022-07-30T22:32:04.058Z,25.60
2022-07-30T22:34:32.733Z,25.62
2022-07-30T22:37:00.010Z,25.56
2022-07-30T22:39:31.836Z,25.66
2022-07-30T22:42:16.229Z,25.64
2022-07-30T22:47:53.918Z,25.63
2022-07-30T22:50:23.829Z,25.56
2022-07-30T22:53:01.847Z,25.55
2022-07-30T22:55:41.478Z,25.42
2022-07-30T22:58:08.675Z,25.43
2022-07-30T23:00:37.098Z,25.32
2022-07-30T23:03:07.813Z,25.34
2022-07-30T23:05:35.688Z,25.38
2022-07-30T23:08:03.907Z,25.35
2022-07-30T23:10:31.774Z,25.21
2022-07-30T23:12:16.036Z,27.60
2022-07-30T23:12:34.641Z,25.68
2022-07-30T23:12:59.317Z,25.26
2022-07-30T23:15:26.416Z,25.20
2022-07-30T23:17:54.123Z,25.16
2022-07-30T23:20:22.077Z,25.23
2022-07-30T23:22:50.641Z,25.16
2022-07-30T23:25:18.453Z,25.16
2022-07-30T23:27:46.776Z,25.09
2022-07-30T23:30:14.608Z,25.11
2022-07-30T23:32:41.911Z,25.10
2022-07-30T23:35:09.754Z,25.01
2022-07-30T23:37:48.416Z,25.00
2022-07-30T23:40:19.850Z,24.91
2022-07-30T23:42:51.127Z,24.81
2022-07-30T23:45:18.708Z,24.75
2022-07-30T23:48:00.738Z,24.73
2022-07-30T23:50:32.657Z,24.70
2022-07-30T23:53:01.019Z,24.73
2022-07-30T23:55:29.893Z,24.62
2022-07-30T23:57:58.193Z,24.62
